الصفحة الرئيسية
METAR-TAF:

METAR-TAF

مطار :

Hévíz, المجر

دائرة عرض: 46-41-11N, خط طول: 017-09-33E, ارتفاع: 124 متر

مراقبة الطقس الحالي

تاريخ ووقت الإصدار 38 دقيقة قبل الساعة 20:15UTC
ريح 7 عقدة من الشمال/الشمال الغربي
درجة الحرارة 12°درجة مئوية
الرطوبة 76%
ضغط 1021 hPa
الرؤية: 9000 متر

METAR: LHSM 292015Z AUTO 34007KT 9000 NSC 12/08 Q1021

زمن: 22:53 (20:53 UTC)


TAF: مفقودة

أرصاد الطقس والتوقعات من أكثر من 4000 مطار (تقارير الطقس للمطار METAR والتنبؤ بالطقس بالمطارTAF).

المحطات المتاحة هي النقط الصفراء والحمراء على الخريطة.

حرك المؤشر فوق النقطة لمعرفة اسم المحطة.

ثم انقر لمعرفة أرصاد وتوقعات الطقس.

لتغيير الخارطة: اضغط على الأزرار الخضراء مع رمز الصليب الأسود للتكبير. على الزر الأخضر مع شرطة للتصغير، أو على الأسهم الخضراء للخرائط المجاورة.


METAR-TAF: